createdAt,value
2023-03-30T00:01:01.418Z,46.06
2023-03-30T00:03:34.278Z,45.97
2023-03-30T00:06:06.468Z,45.28
2023-03-30T00:08:38.016Z,45.25
2023-03-30T00:11:12.850Z,45.52
2023-03-30T00:13:46.235Z,45.11
2023-03-30T00:16:17.817Z,45.36
2023-03-30T00:18:48.618Z,45.01
2023-03-30T00:21:21.456Z,44.70
2023-03-30T00:23:53.202Z,44.40
2023-03-30T00:26:24.546Z,44.02
2023-03-30T00:28:56.097Z,44.21
2023-03-30T00:31:26.905Z,43.62
2023-03-30T00:33:58.568Z,43.45
2023-03-30T00:36:29.352Z,43.43
2023-03-30T00:39:02.312Z,43.33
2023-03-30T00:41:33.808Z,43.32
2023-03-30T00:44:08.549Z,42.51
2023-03-30T00:46:39.405Z,42.68
2023-03-30T00:49:13.259Z,42.53
2023-03-30T00:51:44.788Z,42.74
2023-03-30T00:54:19.674Z,43.29
2023-03-30T00:56:50.779Z,44.03
2023-03-30T00:59:22.253Z,44.30
2023-03-30T01:01:53.364Z,44.78
2023-03-30T01:04:26.970Z,44.91
2023-03-30T01:06:59.037Z,45.05
2023-03-30T01:09:30.817Z,45.24
2023-03-30T01:12:01.531Z,45.16
2023-03-30T01:14:32.515Z,45.44
2023-03-30T01:17:32.348Z,45.53
2023-03-30T01:20:47.371Z,45.47
2023-03-30T01:23:56.374Z,45.19
2023-03-30T01:26:55.059Z,45.63
2023-03-30T01:29:36.080Z,45.23
2023-03-30T01:32:33.731Z,45.29
2023-03-30T01:35:14.001Z,45.03
2023-03-30T01:38:13.359Z,45.34
2023-03-30T01:41:13.171Z,44.99
2023-03-30T01:44:20.199Z,44.88
2023-03-30T01:46:59.733Z,44.92
2023-03-30T01:49:51.000Z,44.18
2023-03-30T01:52:50.491Z,44.48
2023-03-30T01:55:29.438Z,44.28
2023-03-30T01:58:12.722Z,44.22
2023-03-30T02:00:51.069Z,43.79
2023-03-30T02:03:31.368Z,44.05
2023-03-30T02:06:25.573Z,43.65
2023-03-30T02:09:00.430Z,43.70
2023-03-30T02:11:32.865Z,43.79
2023-03-30T02:14:06.385Z,43.36
2023-03-30T02:16:49.121Z,43.20
2023-03-30T02:19:23.604Z,43.01
2023-03-30T02:21:54.899Z,42.56
2023-03-30T02:24:29.229Z,42.89
2023-03-30T02:27:05.384Z,41.64
2023-03-30T02:29:37.510Z,42.06
2023-03-30T02:32:09.239Z,41.47
2023-03-30T02:35:10.340Z,41.12
2023-03-30T02:38:00.926Z,41.91
2023-03-30T02:40:46.917Z,41.16
2023-03-30T02:43:51.967Z,40.39
2023-03-30T02:46:41.367Z,40.05
2023-03-30T02:49:35.117Z,40.49
2023-03-30T02:52:19.276Z,39.83
2023-03-30T02:55:08.255Z,40.08
2023-03-30T02:58:22.906Z,40.74
2023-03-30T03:01:14.562Z,40.59
2023-03-30T03:04:02.898Z,41.81
2023-03-30T03:06:43.434Z,41.52
2023-03-30T03:09:19.865Z,42.09
2023-03-30T03:11:51.007Z,41.78
2023-03-30T03:14:22.087Z,42.28
2023-03-30T03:16:55.971Z,42.33
2023-03-30T03:19:33.330Z,42.15
2023-03-30T03:22:04.776Z,42.01
2023-03-30T03:24:40.677Z,41.16
2023-03-30T03:27:30.328Z,41.51
2023-03-30T03:30:15.271Z,41.04
2023-03-30T03:32:57.055Z,41.18
2023-03-30T03:35:31.195Z,41.31
2023-03-30T03:38:05.021Z,41.13
2023-03-30T03:40:36.730Z,41.08
2023-03-30T03:43:08.604Z,41.05
2023-03-30T03:45:39.722Z,41.29
2023-03-30T03:48:11.061Z,41.33
2023-03-30T03:50:53.122Z,41.15
2023-03-30T03:53:26.128Z,41.49
2023-03-30T03:56:01.844Z,41.06
2023-03-30T03:58:32.873Z,41.16
2023-03-30T04:01:07.780Z,41.22
2023-03-30T04:03:42.124Z,41.72
2023-03-30T04:06:13.394Z,41.81
2023-03-30T04:08:46.095Z,42.10
2023-03-30T04:11:40.756Z,42.24
2023-03-30T04:14:25.329Z,41.70
2023-03-30T04:17:16.186Z,41.47
2023-03-30T04:20:13.005Z,42.41
2023-03-30T04:23:02.763Z,41.95
2023-03-30T04:25:56.231Z,41.63
2023-03-30T04:28:48.256Z,41.58
2023-03-30T04:31:43.131Z,41.67
2023-03-30T04:34:36.784Z,42.05
2023-03-30T04:37:43.683Z,41.96
2023-03-30T04:40:36.167Z,41.80
2023-03-30T04:43:22.569Z,41.99
2023-03-30T04:46:12.097Z,41.94
2023-03-30T04:49:06.078Z,41.71
2023-03-30T04:51:55.667Z,41.12
2023-03-30T04:54:58.009Z,41.48
2023-03-30T04:57:54.915Z,41.46
2023-03-30T05:00:44.340Z,41.72
2023-03-30T05:03:42.439Z,42.10
2023-03-30T05:06:28.922Z,41.61
2023-03-30T05:09:37.994Z,41.47
2023-03-30T05:12:27.661Z,41.07
2023-03-30T05:15:13.339Z,41.17
2023-03-30T05:18:07.483Z,41.30
2023-03-30T05:20:50.391Z,41.02
2023-03-30T05:23:37.274Z,41.55
2023-03-30T05:26:27.571Z,41.21
2023-03-30T05:29:38.726Z,40.95
2023-03-30T05:32:27.945Z,40.55
2023-03-30T05:35:31.869Z,40.82
2023-03-30T05:38:09.438Z,40.98
2023-03-30T05:40:59.266Z,40.44
2023-03-30T05:43:50.798Z,40.80
2023-03-30T05:46:54.476Z,40.53
2023-03-30T05:49:35.558Z,40.86
2023-03-30T05:52:27.102Z,40.95
2023-03-30T05:55:16.367Z,40.39
2023-03-30T05:57:57.925Z,40.40
2023-03-30T06:00:37.605Z,40.56
2023-03-30T06:03:21.644Z,40.56
2023-03-30T06:05:54.823Z,40.83
2023-03-30T06:08:28.012Z,40.18
2023-03-30T06:11:02.916Z,40.03
2023-03-30T06:13:44.937Z,40.33
2023-03-30T06:16:15.825Z,40.29
2023-03-30T06:18:47.936Z,40.36
2023-03-30T06:21:19.768Z,39.82
2023-03-30T06:24:09.949Z,40.10
2023-03-30T06:26:42.866Z,40.15
2023-03-30T06:29:14.762Z,39.88
2023-03-30T06:31:47.156Z,39.62
2023-03-30T06:34:36.290Z,39.97
2023-03-30T06:37:10.269Z,39.87
2023-03-30T06:39:41.420Z,39.93
2023-03-30T06:42:12.773Z,39.67
2023-03-30T06:45:07.332Z,39.64
2023-03-30T06:47:38.841Z,39.55
2023-03-30T06:50:10.070Z,39.58
2023-03-30T06:52:44.336Z,39.28
2023-03-30T06:55:24.616Z,39.76
2023-03-30T06:57:58.901Z,39.32
2023-03-30T07:00:30.728Z,40.15
2023-03-30T07:03:23.312Z,40.45
2023-03-30T07:06:11.559Z,39.45
2023-03-30T07:08:44.084Z,39.96
2023-03-30T07:11:18.215Z,39.94
2023-03-30T07:13:49.362Z,39.72
2023-03-30T07:16:20.264Z,39.52
2023-03-30T07:18:53.565Z,39.56
2023-03-30T07:21:27.792Z,39.32
2023-03-30T07:24:02.059Z,39.02
2023-03-30T07:26:38.677Z,39.68
2023-03-30T07:29:12.481Z,40.09
2023-03-30T07:31:47.041Z,39.51
2023-03-30T07:34:19.135Z,40.09
2023-03-30T07:36:55.590Z,39.84
2023-03-30T07:39:33.447Z,39.74
2023-03-30T07:42:07.290Z,39.76
2023-03-30T07:44:38.362Z,39.85
2023-03-30T07:47:11.940Z,39.21
2023-03-30T07:49:43.193Z,39.77
2023-03-30T07:52:14.472Z,39.80
2023-03-30T07:54:55.565Z,39.60
2023-03-30T07:57:51.882Z,39.84
2023-03-30T08:00:24.839Z,40.20
2023-03-30T08:03:15.217Z,39.85
2023-03-30T08:06:00.290Z,40.29
2023-03-30T08:08:35.830Z,40.54
2023-03-30T08:11:07.842Z,40.76
2023-03-30T08:13:38.988Z,40.39
2023-03-30T08:16:10.163Z,40.46
2023-03-30T08:18:44.583Z,40.43
2023-03-30T08:21:15.628Z,40.79
2023-03-30T08:23:48.510Z,41.11
2023-03-30T08:26:20.049Z,41.20
2023-03-30T08:28:52.756Z,41.05
2023-03-30T08:31:23.580Z,40.92
2023-03-30T08:33:54.589Z,40.94
2023-03-30T08:36:25.498Z,41.58
2023-03-30T08:38:56.964Z,41.26
2023-03-30T08:41:30.735Z,40.79
2023-03-30T08:44:16.852Z,41.67
2023-03-30T08:46:49.288Z,41.44
2023-03-30T08:49:21.857Z,41.62
2023-03-30T08:51:54.695Z,41.89
2023-03-30T08:54:28.087Z,41.93
2023-03-30T08:57:29.110Z,42.00
2023-03-30T09:00:40.148Z,42.63
2023-03-30T09:03:38.281Z,41.80
2023-03-30T09:06:39.876Z,42.64
2023-03-30T09:09:14.945Z,42.27
2023-03-30T09:11:46.608Z,42.51
2023-03-30T09:14:43.599Z,42.63
2023-03-30T09:17:38.173Z,42.19
2023-03-30T09:20:24.293Z,42.73
2023-03-30T09:23:05.538Z,42.85
2023-03-30T09:26:01.571Z,43.41
2023-03-30T09:28:54.576Z,43.26
2023-03-30T09:31:45.226Z,43.68
2023-03-30T09:34:49.694Z,43.03
2023-03-30T09:37:22.741Z,43.41
2023-03-30T09:39:54.448Z,43.68
2023-03-30T09:43:16.709Z,43.68
2023-03-30T09:45:48.314Z,43.59
2023-03-30T09:48:19.380Z,43.80
2023-03-30T09:50:50.780Z,43.87
2023-03-30T09:53:27.727Z,44.24
2023-03-30T09:56:03.338Z,44.48
2023-03-30T09:58:35.691Z,44.67
2023-03-30T10:01:19.230Z,44.68
2023-03-30T10:04:11.398Z,44.37
2023-03-30T10:06:50.983Z,44.60
2023-03-30T10:09:24.992Z,44.46
2023-03-30T10:11:57.358Z,44.57
2023-03-30T10:14:32.753Z,45.06
2023-03-30T10:17:05.813Z,44.92
2023-03-30T10:19:42.309Z,45.48
2023-03-30T10:22:18.986Z,45.41
2023-03-30T10:24:55.992Z,45.21
2023-03-30T10:27:35.546Z,45.23
2023-03-30T10:30:14.017Z,45.70
2023-03-30T10:32:50.467Z,45.82
2023-03-30T10:35:33.496Z,46.14
2023-03-30T10:38:05.580Z,46.21
2023-03-30T10:40:39.478Z,46.21
2023-03-30T10:43:25.596Z,46.84
2023-03-30T10:46:09.013Z,47.36
2023-03-30T10:48:54.263Z,47.23
2023-03-30T10:51:47.413Z,46.74
2023-03-30T10:54:50.355Z,47.65
2023-03-30T10:57:31.212Z,47.60
2023-03-30T11:00:10.771Z,47.61
2023-03-30T11:02:59.897Z,47.72
2023-03-30T11:05:37.936Z,47.88
2023-03-30T11:08:23.872Z,47.44
2023-03-30T11:10:57.874Z,47.54
2023-03-30T11:13:33.465Z,48.10
2023-03-30T11:16:13.049Z,48.45
2023-03-30T11:19:01.496Z,48.66
2023-03-30T11:22:07.475Z,48.66
2023-03-30T11:24:38.262Z,48.39
2023-03-30T11:27:13.019Z,48.97
2023-03-30T11:29:49.029Z,49.41
2023-03-30T11:32:30.409Z,48.93
2023-03-30T11:35:16.231Z,49.10
2023-03-30T11:37:47.657Z,48.73
2023-03-30T11:40:37.307Z,48.84
2023-03-30T11:43:12.671Z,49.62
2023-03-30T11:45:45.749Z,49.29
2023-03-30T11:48:20.288Z,49.63
2023-03-30T11:51:03.821Z,50.08
2023-03-30T11:54:07.339Z,50.90
2023-03-30T11:56:57.079Z,51.50
2023-03-30T11:59:39.116Z,51.55
2023-03-30T12:02:26.554Z,51.25
2023-03-30T12:05:12.353Z,50.97
2023-03-30T12:08:09.366Z,50.89
2023-03-30T12:10:44.618Z,50.91
2023-03-30T12:13:17.421Z,50.77
2023-03-30T12:15:56.565Z,50.65
2023-03-30T12:19:16.519Z,50.39
2023-03-30T12:21:53.270Z,50.59
2023-03-30T12:24:41.405Z,50.87
2023-03-30T12:27:12.504Z,50.44
2023-03-30T12:30:16.285Z,50.60
2023-03-30T12:33:19.485Z,50.85
2023-03-30T12:35:53.755Z,50.77
2023-03-30T12:38:47.087Z,50.98
2023-03-30T12:41:23.960Z,51.42
2023-03-30T12:44:30.259Z,51.64
2023-03-30T12:47:12.416Z,51.15
2023-03-30T12:50:17.277Z,51.73
2023-03-30T12:52:57.040Z,51.46
2023-03-30T12:55:48.941Z,51.44
2023-03-30T12:58:40.700Z,51.58
2023-03-30T13:01:56.123Z,51.29
2023-03-30T13:04:29.191Z,51.10
2023-03-30T13:07:04.624Z,50.94
2023-03-30T13:09:54.903Z,51.30
2023-03-30T13:12:29.112Z,51.21
2023-03-30T13:15:07.223Z,51.38
2023-03-30T13:18:10.529Z,51.48
2023-03-30T13:20:47.942Z,51.33
2023-03-30T13:23:23.712Z,50.89
2023-03-30T13:26:34.566Z,51.29
2023-03-30T13:29:09.504Z,50.76
2023-03-30T13:31:44.054Z,50.71
2023-03-30T13:34:18.049Z,50.85
2023-03-30T13:37:19.055Z,51.12
2023-03-30T13:40:39.533Z,50.96
2023-03-30T13:43:22.314Z,50.92
2023-03-30T13:46:21.377Z,50.81
2023-03-30T13:49:24.103Z,51.10
2023-03-30T13:51:56.348Z,50.84
2023-03-30T13:54:31.172Z,51.02
2023-03-30T13:57:22.263Z,50.98
2023-03-30T14:00:34.279Z,51.32
2023-03-30T14:03:33.618Z,50.50
2023-03-30T14:06:29.130Z,50.72
2023-03-30T14:09:09.970Z,50.76
2023-03-30T14:11:46.987Z,50.91
2023-03-30T14:14:32.593Z,51.22
2023-03-30T14:17:17.241Z,51.13
2023-03-30T14:19:51.425Z,51.19
2023-03-30T14:22:28.394Z,50.87
2023-03-30T14:25:05.738Z,50.94
2023-03-30T14:27:40.409Z,51.06
2023-03-30T14:30:30.514Z,51.09
2023-03-30T14:33:13.451Z,50.76
2023-03-30T14:35:57.455Z,50.87
2023-03-30T14:38:42.963Z,51.06
2023-03-30T14:41:28.280Z,50.95
2023-03-30T14:44:09.480Z,50.99
2023-03-30T14:46:45.294Z,51.06
2023-03-30T14:49:23.332Z,50.67
2023-03-30T14:52:02.281Z,50.77
2023-03-30T14:54:33.458Z,51.01
2023-03-30T14:57:07.385Z,50.95
2023-03-30T14:59:46.860Z,50.92
2023-03-30T15:02:23.418Z,50.93
2023-03-30T15:04:59.184Z,51.09
2023-03-30T15:07:37.260Z,51.25
2023-03-30T15:10:08.699Z,51.02
2023-03-30T15:12:45.293Z,51.09
2023-03-30T15:15:18.437Z,51.28
2023-03-30T15:17:51.400Z,51.30
2023-03-30T15:20:31.885Z,51.42
2023-03-30T15:23:03.104Z,51.76
2023-03-30T15:25:36.532Z,51.54
2023-03-30T15:28:28.997Z,51.54
2023-03-30T15:31:00.488Z,51.55
2023-03-30T15:33:33.890Z,51.86
2023-03-30T15:36:40.519Z,51.71
2023-03-30T15:39:35.093Z,51.83
2023-03-30T15:42:08.257Z,51.88
2023-03-30T15:44:42.303Z,51.55
2023-03-30T15:47:20.668Z,51.76
2023-03-30T15:49:52.989Z,51.71
2023-03-30T15:52:34.977Z,51.74
2023-03-30T15:55:20.908Z,51.85
2023-03-30T15:57:53.286Z,51.81
2023-03-30T16:00:36.451Z,51.86
2023-03-30T16:03:07.553Z,51.99
2023-03-30T16:05:39.090Z,52.20
2023-03-30T16:08:10.694Z,52.07
2023-03-30T16:10:41.877Z,51.90
2023-03-30T16:13:13.196Z,52.02
2023-03-30T16:15:43.618Z,52.01
2023-03-30T16:18:14.160Z,51.86
2023-03-30T16:20:44.457Z,51.85
2023-03-30T16:23:14.915Z,51.99
2023-03-30T16:25:46.097Z,52.16
2023-03-30T16:28:18.846Z,52.20
2023-03-30T16:30:52.740Z,51.93
2023-03-30T16:33:23.448Z,52.07
2023-03-30T16:35:56.935Z,52.08
2023-03-30T16:38:28.348Z,52.11
2023-03-30T16:41:00.569Z,52.28
2023-03-30T16:43:30.902Z,51.79
2023-03-30T16:46:01.276Z,51.83
2023-03-30T16:48:32.043Z,51.51
2023-03-30T16:51:02.645Z,51.58
2023-03-30T16:53:33.327Z,51.47
2023-03-30T16:56:04.015Z,51.36
2023-03-30T16:58:35.170Z,51.32
2023-03-30T17:01:06.115Z,51.02
2023-03-30T17:03:37.543Z,50.78
2023-03-30T17:06:09.580Z,50.96
2023-03-30T17:08:43.111Z,50.54
2023-03-30T17:11:14.702Z,50.29
2023-03-30T17:13:50.843Z,50.30
2023-03-30T17:16:22.821Z,50.43
2023-03-30T17:19:01.671Z,50.45
2023-03-30T17:21:32.324Z,50.28
2023-03-30T17:24:02.695Z,50.28
2023-03-30T17:26:33.372Z,50.22
2023-03-30T17:29:04.396Z,49.95
2023-03-30T17:31:34.872Z,49.87
2023-03-30T17:34:05.389Z,49.81
2023-03-30T17:36:36.281Z,49.71
2023-03-30T17:39:11.261Z,49.70
2023-03-30T17:41:42.248Z,49.71
2023-03-30T17:44:15.168Z,49.36
2023-03-30T17:46:45.871Z,49.58
2023-03-30T17:49:18.276Z,49.49
2023-03-30T17:51:49.305Z,49.35
2023-03-30T17:54:19.736Z,49.78
2023-03-30T17:56:50.048Z,49.56
2023-03-30T17:59:20.629Z,49.59
2023-03-30T18:01:51.347Z,49.62
2023-03-30T18:04:21.625Z,49.83
2023-03-30T18:06:53.285Z,49.96
2023-03-30T18:09:23.767Z,50.03
2023-03-30T18:11:55.026Z,50.00
2023-03-30T18:14:26.351Z,50.17
2023-03-30T18:17:05.950Z,50.60
2023-03-30T18:19:36.892Z,50.74
2023-03-30T18:22:07.674Z,50.94
2023-03-30T18:24:39.078Z,51.34
2023-03-30T18:27:09.957Z,51.23
2023-03-30T18:29:40.394Z,51.14
2023-03-30T18:32:11.565Z,51.40
2023-03-30T18:34:42.528Z,51.69
2023-03-30T18:37:13.177Z,51.58
2023-03-30T18:39:51.828Z,51.54
2023-03-30T18:42:22.111Z,51.76
2023-03-30T18:44:54.494Z,51.84
2023-03-30T18:47:27.312Z,51.98
2023-03-30T18:49:57.914Z,51.69
2023-03-30T18:52:29.910Z,51.86
2023-03-30T18:55:00.939Z,51.95
2023-03-30T18:57:31.654Z,52.14
2023-03-30T19:00:03.433Z,52.24
2023-03-30T19:02:33.890Z,52.09
2023-03-30T19:05:04.297Z,52.27
2023-03-30T19:07:37.542Z,52.28
2023-03-30T19:10:11.199Z,52.37
2023-03-30T19:12:42.119Z,52.18
2023-03-30T19:15:20.340Z,52.43
2023-03-30T19:17:50.856Z,52.31
2023-03-30T19:20:24.299Z,52.23
2023-03-30T19:22:55.334Z,52.24
2023-03-30T19:25:27.118Z,52.40
2023-03-30T19:28:03.980Z,52.27
2023-03-30T19:30:38.596Z,52.13
2023-03-30T19:33:13.356Z,51.94
2023-03-30T19:35:45.784Z,52.09
2023-03-30T19:38:17.203Z,51.57
2023-03-30T19:40:47.866Z,51.28
2023-03-30T19:43:18.153Z,50.92
2023-03-30T19:45:52.327Z,50.97
2023-03-30T19:48:23.144Z,51.19
2023-03-30T19:50:53.223Z,51.11
2023-03-30T19:53:23.997Z,50.84
2023-03-30T19:55:55.326Z,50.82
2023-03-30T19:58:25.994Z,50.89
2023-03-30T20:00:58.416Z,50.83
2023-03-30T20:03:36.694Z,50.85
2023-03-30T20:06:12.700Z,50.63
2023-03-30T20:08:44.306Z,50.94
2023-03-30T20:11:14.638Z,50.57
2023-03-30T20:13:46.900Z,50.53
2023-03-30T20:16:26.952Z,50.31
2023-03-30T20:18:58.734Z,50.32
2023-03-30T20:21:32.357Z,50.34
2023-03-30T20:24:03.384Z,50.29
2023-03-30T20:26:34.155Z,50.31
2023-03-30T20:29:05.119Z,49.99
2023-03-30T20:31:35.396Z,50.12
2023-03-30T20:34:06.255Z,50.09
2023-03-30T20:36:36.654Z,49.98
2023-03-30T20:39:09.284Z,49.97
2023-03-30T20:41:39.584Z,50.00
2023-03-30T20:44:12.717Z,49.88
2023-03-30T20:46:44.326Z,50.14
2023-03-30T20:49:16.713Z,49.75
2023-03-30T20:51:47.381Z,49.82
2023-03-30T20:54:18.494Z,49.84
2023-03-30T20:56:49.205Z,49.75
2023-03-30T20:59:20.171Z,49.70
2023-03-30T21:01:52.878Z,49.84
2023-03-30T21:04:23.800Z,49.77
2023-03-30T21:06:56.958Z,49.80
2023-03-30T21:09:30.396Z,50.02
2023-03-30T21:12:00.945Z,49.92
2023-03-30T21:14:32.150Z,50.12
2023-03-30T21:17:02.857Z,49.79
2023-03-30T21:19:33.457Z,50.30
2023-03-30T21:22:04.115Z,50.08
2023-03-30T21:24:35.673Z,50.18
2023-03-30T21:27:05.846Z,50.30
2023-03-30T21:29:37.350Z,50.52
2023-03-30T21:32:07.879Z,50.57
2023-03-30T21:34:38.569Z,50.34
2023-03-30T21:37:09.428Z,50.77
2023-03-30T21:39:42.488Z,50.90
2023-03-30T21:42:13.491Z,51.23
2023-03-30T21:44:43.848Z,51.47
2023-03-30T21:47:17.497Z,51.40
2023-03-30T21:49:47.849Z,51.53
2023-03-30T21:52:18.188Z,51.60
2023-03-30T21:54:48.227Z,51.59
2023-03-30T21:57:18.709Z,51.62
2023-03-30T21:59:48.771Z,51.35
2023-03-30T22:02:19.572Z,51.66
2023-03-30T22:04:50.467Z,51.57
2023-03-30T22:07:21.601Z,51.53
2023-03-30T22:09:52.348Z,51.42
2023-03-30T22:12:22.604Z,51.33
2023-03-30T22:14:53.901Z,51.60
2023-03-30T22:17:42.271Z,51.62
2023-03-30T22:20:13.425Z,51.63
2023-03-30T22:22:44.645Z,51.64
2023-03-30T22:25:15.337Z,51.71
2023-03-30T22:27:46.939Z,51.68
2023-03-30T22:30:18.198Z,51.78
2023-03-30T22:32:48.638Z,51.38
2023-03-30T22:35:18.724Z,51.55
2023-03-30T22:37:49.456Z,51.68
2023-03-30T22:40:19.926Z,51.65
2023-03-30T22:42:50.880Z,51.40
2023-03-30T22:45:21.884Z,51.68
2023-03-30T22:47:53.865Z,52.16
2023-03-30T22:50:27.300Z,51.75
2023-03-30T22:52:58.268Z,52.32
2023-03-30T22:55:28.273Z,52.19
2023-03-30T22:57:58.781Z,52.19
2023-03-30T23:00:32.498Z,52.13
2023-03-30T23:03:06.361Z,52.35
2023-03-30T23:05:37.050Z,52.22
2023-03-30T23:08:07.698Z,52.23
2023-03-30T23:10:41.480Z,52.01
2023-03-30T23:13:12.692Z,51.61
2023-03-30T23:15:43.628Z,51.79
2023-03-30T23:18:14.482Z,51.62
2023-03-30T23:20:47.411Z,51.51
2023-03-30T23:23:17.557Z,51.48
2023-03-30T23:25:53.850Z,51.45
2023-03-30T23:28:24.481Z,51.63
2023-03-30T23:30:54.818Z,51.67
2023-03-30T23:33:26.447Z,51.28
2023-03-30T23:35:57.354Z,51.64
2023-03-30T23:38:28.377Z,51.01
2023-03-30T23:41:00.563Z,51.00
2023-03-30T23:43:30.886Z,51.14
2023-03-30T23:46:01.768Z,51.19
2023-03-30T23:48:32.228Z,51.30
2023-03-30T23:51:03.278Z,51.17
2023-03-30T23:53:33.733Z,51.13
2023-03-30T23:56:07.326Z,51.05
2023-03-30T23:58:37.998Z,50.61
